Time;durP1;ratioP1;P1;durP2;ratioP2;P2;SDS_P1;SDS_P2;PMS_P1;PMS_P2;Temp;Humidity;BMP_temperature;BMP_pressure;BME280_temperature;BME280_humidity;BME280_pressure;Samples;Min_cycle;Max_cycle;Signal;HPM_P1;HPM_P2
2022/11/10 00:00:41;;;;;;;3.37;1.73;;;11.20;99.90;;;-141.84;76.49;19474.44;5011630;28;20226;-62
2022/11/10 00:03:11;;;;;;;2.33;2.03;;;11.20;99.90;;;-141.84;76.66;19464.28;5011501;28;20604;-61
2022/11/10 00:05:39;;;;;;;3.83;1.70;;;11.20;99.90;;;-141.84;77.20;19431.78;5011718;28;20222;-62
2022/11/10 00:08:12;;;;;;;2.53;1.70;;;11.10;99.90;;;-141.84;78.08;19458.19;5011212;28;20203;-60
2022/11/10 00:13:25;;;;;;;2.63;2.00;;;10.90;99.90;;;-141.84;78.87;19415.50;5010982;28;20332;-62
2022/11/10 00:18:40;;;;;;;2.93;1.93;;;10.80;99.90;;;-141.84;78.83;19395.19;5011166;28;20229;-61
2022/11/10 00:21:11;;;;;;;3.00;2.03;;;10.70;99.90;;;-141.84;79.03;19380.97;5011252;28;20433;-61
2022/11/10 00:23:40;;;;;;;1.97;1.60;;;10.70;99.90;;;-141.84;79.28;19401.28;5010882;28;20722;-60
2022/11/10 00:26:15;;;;;;;2.13;1.63;;;10.70;99.90;;;-141.84;79.12;19409.41;5011396;28;20211;-62
2022/11/10 00:28:44;;;;;;;4.63;1.90;;;10.70;99.90;;;-141.84;79.00;19395.19;5011146;28;20557;-62
2022/11/10 00:31:13;;;;;;;3.57;1.87;;;10.70;99.90;;;-141.84;79.01;19395.19;5010797;28;20233;-61
2022/11/10 00:33:43;;;;;;;4.03;1.87;;;10.60;99.90;;;-141.84;78.77;19429.75;5010990;28;20288;-62
2022/11/10 00:36:11;;;;;;;3.23;2.20;;;10.70;99.90;;;-141.84;78.62;19407.38;5011090;28;20234;-61
2022/11/10 00:38:41;;;;;;;2.33;1.80;;;10.70;99.90;;;-141.84;77.50;19439.91;5010478;28;20222;-62
2022/11/10 00:41:09;;;;;;;4.57;2.00;;;10.70;99.90;;;-141.84;78.29;19407.38;5011189;28;20201;-61
2022/11/10 00:43:37;;;;;;;2.40;1.90;;;10.70;99.90;;;-141.84;78.38;19419.59;5011414;28;20203;-65
2022/11/10 00:46:05;;;;;;;4.47;2.07;;;10.70;99.90;;;-141.84;78.73;19397.22;5010713;28;20265;-62
2022/11/10 00:48:34;;;;;;;4.87;2.03;;;10.60;99.90;;;-141.84;78.69;19399.25;5010961;28;20230;-63
2022/11/10 00:51:02;;;;;;;4.63;2.23;;;10.60;99.90;;;-141.84;78.92;19387.06;5011121;28;20554;-62
2022/11/10 00:53:30;;;;;;;6.50;1.90;;;10.50;99.90;;;-141.84;79.21;19385.03;5010456;28;20218;-60
2022/11/10 00:56:00;;;;;;;4.37;1.83;;;10.50;99.90;;;-141.84;79.23;19374.88;5011219;28;20674;-60
2022/11/10 00:58:28;;;;;;;5.07;1.97;;;10.50;99.90;;;-141.84;79.41;19380.97;5030792;28;20264;-62
2022/11/10 01:01:01;;;;;;;4.30;2.10;;;10.40;99.90;;;-141.84;79.71;19383.00;5030400;28;20229;-61
2022/11/10 01:03:30;;;;;;;2.60;1.97;;;10.30;99.90;;;-141.84;80.19;19338.28;5030418;28;20284;-61
2022/11/10 01:05:58;;;;;;;4.50;2.30;;;10.30;99.90;;;-141.84;80.24;19358.63;5030405;28;20241;-61
2022/11/10 01:08:26;;;;;;;4.63;2.00;;;10.30;99.90;;;-141.84;79.29;19354.56;5033490;28;20661;-61
2022/11/10 01:11:03;;;;;;;3.50;1.87;;;10.30;99.90;;;-141.84;79.68;19348.47;5034824;28;20218;-64
2022/11/10 01:13:32;;;;;;;7.40;2.40;;;10.40;99.90;;;-141.84;79.70;19370.81;5014955;28;20646;-61
2022/11/10 01:16:04;;;;;;;3.97;1.97;;;10.40;99.90;;;-141.84;79.26;19356.59;5014499;28;20242;-61
2022/11/10 01:18:33;;;;;;;3.17;1.93;;;10.40;99.90;;;-141.84;79.33;19397.22;5014307;28;20235;-62
2022/11/10 01:21:01;;;;;;;4.07;2.00;;;10.40;99.90;;;-141.84;79.25;19352.53;5014407;28;20317;-61
2022/11/10 01:23:30;;;;;;;6.13;2.07;;;10.30;99.90;;;-141.84;78.93;19368.78;5014376;28;20230;-62
2022/11/10 01:25:58;;;;;;;4.40;2.20;;;10.40;99.90;;;-141.84;78.68;19356.59;5014622;28;20211;-61
2022/11/10 01:28:28;;;;;;;3.83;2.10;;;10.40;99.90;;;-141.84;78.63;19380.97;5034061;28;20228;-63
2022/11/10 01:30:58;;;;;;;3.30;2.10;;;10.40;99.90;;;-141.84;78.60;19387.06;5033985;28;20241;-62
2022/11/10 01:33:26;;;;;;;5.53;2.03;;;10.40;99.90;;;-141.84;78.92;19358.63;5033879;28;20241;-62
2022/11/10 01:35:54;;;;;;;4.37;1.80;;;10.40;99.90;;;-141.84;77.84;19385.03;5033969;28;20241;-61
2022/11/10 01:38:22;;;;;;;5.27;2.23;;;10.50;99.90;;;-141.84;77.27;19399.25;5033758;28;20218;-61
2022/11/10 01:40:51;;;;;;;3.73;2.13;;;10.50;99.90;;;-141.84;77.11;19401.28;5034456;28;20727;-62
2022/11/10 01:43:19;;;;;;;2.97;2.00;;;10.50;99.90;;;-141.84;77.37;19383.00;5033602;28;20229;-60
2022/11/10 01:45:53;;;;;;;4.83;2.07;;;10.50;99.90;;;-141.84;77.50;19380.97;5033698;28;20234;-61
2022/11/10 01:48:32;;;;;;;4.83;1.93;;;10.50;99.90;;;-141.84;78.00;19354.56;5033741;28;20254;-61
2022/11/10 01:51:06;;;;;;;5.30;1.90;;;10.40;99.90;;;-141.84;78.40;19385.03;5033754;28;20621;-61
2022/11/10 01:53:42;;;;;;;5.80;2.73;;;10.40;99.90;;;-141.84;78.37;19389.09;5033587;28;20288;-61
2022/11/10 01:56:13;;;;;;;3.13;1.70;;;10.40;99.90;;;-141.84;77.86;19374.88;5033452;28;20600;-62
2022/11/10 01:58:49;;;;;;;3.27;1.90;;;10.40;99.90;;;-141.84;77.44;19403.31;5034054;28;20198;-60
2022/11/10 02:01:19;;;;;;;4.23;2.07;;;10.40;99.90;;;-141.84;77.76;19391.13;5033541;28;20221;-61
2022/11/10 02:03:51;;;;;;;3.23;1.73;;;10.40;99.90;;;-141.84;77.73;19407.38;5033142;28;20283;-61
2022/11/10 02:06:25;;;;;;;4.63;2.20;;;10.40;99.90;;;-141.84;77.90;19370.81;5033443;28;20583;-61
2022/11/10 02:08:55;;;;;;;3.27;1.83;;;10.40;99.90;;;-141.84;77.69;19391.13;5033161;28;20230;-60
2022/11/10 02:11:24;;;;;;;5.93;1.97;;;10.30;99.90;;;-141.84;78.79;19338.28;5033410;28;20283;-61
2022/11/10 02:13:53;;;;;;;6.07;2.00;;;10.30;99.90;;;-141.84;78.02;19366.75;5033618;28;20233;-61
2022/11/10 02:16:24;;;;;;;4.03;2.10;;;10.30;99.90;;;-141.84;77.39;19389.09;5033032;28;20230;-63
2022/11/10 02:18:52;;;;;;;4.17;2.00;;;10.30;99.90;;;-141.84;77.57;19358.63;5032602;28;20716;-61
2022/11/10 02:21:22;;;;;;;4.33;2.37;;;10.40;99.90;;;-141.84;77.11;19385.03;5032794;28;20241;-62
2022/11/10 02:23:53;;;;;;;5.10;1.87;;;10.40;99.90;;;-141.84;77.28;19407.38;5045229;28;20598;-61
2022/11/10 02:26:29;;;;;;;7.07;2.10;;;10.40;99.90;;;-141.84;76.36;19405.34;5052879;28;20229;-62
2022/11/10 02:28:58;;;;;;;3.87;1.97;;;10.50;99.90;;;-141.84;76.81;19395.19;5053298;28;20189;-61
2022/11/10 02:31:26;;;;;;;4.23;1.83;;;10.50;99.90;;;-141.84;76.46;19393.16;5033199;28;20229;-61
2022/11/10 02:33:54;;;;;;;5.37;2.10;;;10.50;99.90;;;-141.84;76.29;19411.44;5048745;28;20271;-61
2022/11/10 02:36:23;;;;;;;4.10;1.80;;;10.50;99.90;;;-141.84;76.91;19336.25;5052642;28;20229;-59
2022/11/10 02:38:52;;;;;;;5.40;2.10;;;10.40;99.90;;;-141.84;76.94;19411.44;5039666;28;20225;-61
2022/11/10 02:41:20;;;;;;;3.57;1.70;;;10.40;99.90;;;-141.84;76.93;19376.91;5033273;28;20234;-61
2022/11/10 02:43:48;;;;;;;4.47;1.97;;;10.40;99.90;;;-141.84;76.45;19383.00;5032785;28;20614;-61
2022/11/10 02:46:16;;;;;;;6.63;1.93;;;10.40;99.90;;;-141.84;76.33;19374.88;5032210;28;20242;-62
2022/11/10 02:48:45;;;;;;;2.83;2.03;;;10.40;99.90;;;-141.84;77.03;19378.94;5032606;28;20229;-60
2022/11/10 02:51:13;;;;;;;4.57;2.00;;;10.40;99.90;;;-141.84;76.99;19358.63;5032352;28;20934;-60
2022/11/10 02:53:42;;;;;;;5.63;2.23;;;10.30;99.90;;;-141.84;76.99;19356.59;5032258;28;20268;-60
2022/11/10 02:56:10;;;;;;;2.83;1.60;;;10.30;99.90;;;-141.84;76.49;19383.00;5041980;28;20216;-61
2022/11/10 02:58:39;;;;;;;3.90;2.10;;;10.30;99.90;;;-141.84;76.31;19405.34;5052721;28;20209;-60
2022/11/10 03:01:07;;;;;;;6.53;2.23;;;10.30;99.90;;;-141.84;75.51;19413.47;5052172;28;20237;-61
2022/11/10 03:03:36;;;;;;;3.57;2.00;;;10.30;99.90;;;-141.84;75.28;19368.78;5052647;28;20225;-61
2022/11/10 03:06:04;;;;;;;3.27;1.90;;;10.30;99.90;;;-141.84;76.03;19352.53;5052403;28;20229;-61
2022/11/10 03:08:32;;;;;;;3.03;2.10;;;10.30;99.90;;;-141.84;75.62;19401.28;5031980;28;20491;-61
2022/11/10 03:11:02;;;;;;;3.37;2.03;;;10.30;99.90;;;-141.84;75.14;19409.41;5020177;28;20752;-61
2022/11/10 03:13:30;;;;;;;4.73;1.90;;;10.30;99.90;;;-141.84;75.28;19403.31;5052516;28;20201;-62
2022/11/10 03:16:18;;;;;;;3.87;2.10;;;10.30;99.90;;;-141.84;75.84;19393.16;5051610;28;20221;-60
2022/11/10 03:18:47;;;;;;;4.47;2.10;;;10.30;99.90;;;-141.84;76.19;19358.63;5051620;28;20308;-61
2022/11/10 03:21:15;;;;;;;5.47;1.93;;;10.10;99.90;;;-141.84;76.66;19366.75;5051795;28;20229;-61
2022/11/10 03:23:43;;;;;;;4.90;2.10;;;10.10;99.90;;;-141.84;76.04;19362.69;5051693;28;20233;-61
2022/11/10 03:26:13;;;;;;;6.07;2.00;;;10.10;99.90;;;-141.84;75.82;19376.91;5051909;28;20205;-61
2022/11/10 03:28:41;;;;;;;3.60;2.17;;;10.10;99.90;;;-141.84;75.01;19366.75;5052507;28;20220;-61
2022/11/10 03:31:09;;;;;;;3.00;2.33;;;10.10;99.90;;;-141.84;75.82;19415.50;5050614;28;20236;-61
2022/11/10 03:33:37;;;;;;;3.23;1.80;;;10.10;99.90;;;-141.84;75.25;19387.06;5051675;28;20226;-60
2022/11/10 03:36:06;;;;;;;4.00;2.10;;;10.10;99.90;;;-141.84;75.52;19391.13;5051631;28;20225;-61
2022/11/10 03:38:34;;;;;;;4.87;2.03;;;10.10;99.90;;;-141.84;75.71;19389.09;5051494;28;20274;-60
2022/11/10 03:41:02;;;;;;;5.63;1.97;;;10.10;99.90;;;-141.84;75.98;19352.53;5051635;28;20201;-61
2022/11/10 03:43:48;;;;;;;3.87;2.00;;;10.00;99.90;;;-141.84;76.82;19317.97;5051987;28;20185;-61
2022/11/10 03:46:17;;;;;;;4.93;2.63;;;10.00;99.90;;;-141.84;76.33;19376.91;5051122;28;20241;-61
2022/11/10 03:48:46;;;;;;;4.23;2.30;;;9.90;99.90;;;-141.84;76.44;19378.94;5051268;28;20567;-61
2022/11/10 03:51:21;;;;;;;3.80;2.10;;;9.80;99.90;;;-141.84;76.63;19356.59;5051376;28;20229;-61
2022/11/10 03:53:49;;;;;;;5.03;2.00;;;9.80;99.90;;;-141.84;76.34;19342.34;5050963;28;20735;-61
2022/11/10 03:56:17;;;;;;;4.07;2.10;;;9.80;99.90;;;-141.84;77.03;19362.69;5061672;28;20196;-60
2022/11/10 03:58:47;;;;;;;5.77;2.17;;;9.70;99.90;;;-141.84;77.05;19334.22;5071386;28;20200;-61
2022/11/10 04:01:15;;;;;;;6.13;2.20;;;9.70;99.90;;;-141.84;77.69;19322.03;5070990;28;20224;-61
2022/11/10 04:03:44;;;;;;;5.23;2.50;;;9.60;99.90;;;-141.84;77.36;19340.31;5071096;28;20235;-62
2022/11/10 04:09:05;;;;;;;5.27;2.00;;;9.70;99.90;;;-141.84;76.00;19358.63;5056071;28;20813;-61
2022/11/10 04:17:05;;;;;;;6.33;2.30;;;9.70;99.90;;;-141.84;76.25;19366.75;5050992;28;20673;-61
2022/11/10 04:19:33;;;;;;;2.97;1.77;;;9.70;99.90;;;-141.84;75.72;19378.94;5051255;28;20612;-61
2022/11/10 04:22:01;;;;;;;4.87;2.10;;;9.70;99.90;;;-141.84;75.49;19401.28;5050657;28;20720;-61
2022/11/10 04:24:29;;;;;;;4.10;1.87;;;9.80;99.90;;;-141.84;75.65;19342.34;5050468;28;20228;-62
2022/11/10 04:26:57;;;;;;;5.23;1.90;;;9.80;99.90;;;-141.84;76.03;19350.50;5050692;28;20225;-61
2022/11/10 04:29:27;;;;;;;4.37;2.03;;;9.80;99.90;;;-141.84;75.72;19346.44;5050560;28;20259;-61
2022/11/10 04:31:55;;;;;;;3.57;1.80;;;9.80;99.90;;;-141.84;75.38;19352.53;5050682;28;20688;-61
2022/11/10 04:34:23;;;;;;;3.87;1.60;;;9.80;99.90;;;-141.84;76.16;19338.28;5050515;28;20232;-60
2022/11/10 04:36:51;;;;;;;5.07;2.10;;;9.70;99.90;;;-141.84;76.10;19342.34;5050426;28;20330;-61
2022/11/10 04:39:19;;;;;;;5.57;2.03;;;9.60;99.90;;;-141.84;76.01;19307.81;5050316;28;20273;-61
2022/11/10 04:41:48;;;;;;;4.23;2.20;;;9.60;99.90;;;-141.84;76.70;19322.03;5050326;28;20272;-61
2022/11/10 04:44:16;;;;;;;9.03;2.27;;;9.50;99.90;;;-141.84;76.48;19309.84;5050215;28;20259;-62
2022/11/10 04:46:45;;;;;;;6.23;2.60;;;9.50;99.90;;;-141.84;76.85;19334.22;5050544;28;20290;-61
2022/11/10 04:49:13;;;;;;;3.77;1.80;;;9.50;99.90;;;-141.84;77.31;19330.16;5050366;28;20258;-62
2022/11/10 04:51:41;;;;;;;4.37;2.00;;;9.40;99.90;;;-141.84;77.25;19348.47;5049958;28;20635;-61
2022/11/10 04:54:11;;;;;;;2.47;1.70;;;9.40;99.90;;;-141.84;77.61;19297.66;5050286;28;20228;-61
2022/11/10 04:56:40;;;;;;;4.73;2.03;;;9.40;99.90;;;-141.84;77.88;19309.84;5064004;28;20221;-61
2022/11/10 04:59:08;;;;;;;5.83;2.10;;;9.30;99.90;;;-141.84;77.72;19301.72;5069989;28;20668;-61
2022/11/10 05:01:36;;;;;;;6.20;2.30;;;9.30;99.90;;;-141.84;77.57;19305.78;5070401;28;20676;-62
2022/11/10 05:04:06;;;;;;;5.80;2.67;;;9.30;99.90;;;-141.84;77.31;19297.66;5070120;28;20228;-61
2022/11/10 05:06:34;;;;;;;5.17;2.17;;;9.30;99.90;;;-141.84;77.59;19311.88;5070252;28;20232;-60
2022/11/10 05:09:02;;;;;;;3.67;1.97;;;9.30;99.90;;;-141.84;77.63;19305.78;5055767;28;20236;-61
2022/11/10 05:11:30;;;;;;;3.70;2.00;;;9.30;99.90;;;-141.84;77.12;19317.97;5049936;28;20240;-60
2022/11/10 05:13:58;;;;;;;4.03;1.90;;;9.30;99.90;;;-141.84;77.42;19320.00;5050400;28;20209;-60
2022/11/10 05:16:27;;;;;;;3.70;1.87;;;9.30;99.90;;;-141.84;76.97;19297.66;5050463;28;20217;-61
2022/11/10 05:18:57;;;;;;;4.03;2.30;;;9.40;99.90;;;-141.84;76.77;19317.97;5050122;28;20232;-62
2022/11/10 05:21:26;;;;;;;6.60;2.03;;;9.40;99.90;;;-141.84;77.15;19348.47;5050514;28;20232;-63
2022/11/10 05:23:54;;;;;;;7.40;2.43;;;9.30;99.90;;;-141.84;76.80;19309.84;5049843;28;20233;-62
2022/11/10 05:26:22;;;;;;;4.20;2.10;;;9.30;99.90;;;-141.84;77.30;19317.97;5050323;28;20233;-62
2022/11/10 05:28:51;;;;;;;5.93;2.40;;;9.30;99.90;;;-141.84;76.98;19303.75;5050471;28;20220;-61
2022/11/10 05:31:19;;;;;;;4.00;2.10;;;9.30;99.90;;;-141.84;77.23;19261.06;5050220;28;20229;-62
2022/11/10 05:33:47;;;;;;;6.43;2.00;;;9.20;99.90;;;-141.84;77.67;19279.38;5049724;28;20730;-61
2022/11/10 05:36:15;;;;;;;4.03;1.90;;;9.20;99.90;;;-141.84;77.62;19293.59;5050205;28;20236;-61
2022/11/10 05:38:44;;;;;;;4.87;2.00;;;9.20;99.90;;;-141.84;78.30;19277.34;5049855;28;20327;-61
2022/11/10 05:41:12;;;;;;;5.67;2.07;;;9.10;99.90;;;-141.84;78.18;19295.63;5050029;28;20235;-61
2022/11/10 05:43:41;;;;;;;3.83;2.27;;;9.10;99.90;;;-141.84;78.10;19277.34;5049984;28;20209;-61
2022/11/10 05:46:09;;;;;;;4.97;2.30;;;9.10;99.90;;;-141.84;78.57;19252.94;5049703;28;20237;-61
2022/11/10 05:48:37;;;;;;;4.43;2.57;;;9.00;99.90;;;-141.84;78.33;19261.06;5049770;28;20225;-61
2022/11/10 05:51:05;;;;;;;5.93;2.37;;;9.00;99.90;;;-141.84;78.59;19275.31;5049768;28;20696;-62
2022/11/10 05:53:34;;;;;;;3.63;2.10;;;9.00;99.90;;;-141.84;77.73;19291.56;5051498;28;20221;-62
2022/11/10 05:56:03;;;;;;;4.63;2.30;;;9.00;99.90;;;-141.84;77.50;19269.22;5061815;28;20568;-62
2022/11/10 05:58:31;;;;;;;5.27;1.90;;;9.10;99.90;;;-141.84;77.52;19285.47;5073721;28;20204;-63
2022/11/10 06:01:00;;;;;;;3.90;2.10;;;9.10;99.90;;;-141.84;77.48;19291.56;5073314;28;20251;-63
2022/11/10 06:03:28;;;;;;;2.43;1.63;;;9.20;99.90;;;-141.84;77.42;19297.66;5073070;28;20228;-62
2022/11/10 06:05:56;;;;;;;9.90;3.03;;;9.30;99.90;;;-141.84;77.09;19293.59;5073295;28;20259;-63
2022/11/10 06:08:25;;;;;;;5.53;2.37;;;9.30;99.90;;;-141.84;76.97;19313.91;5055364;28;20596;-62
2022/11/10 06:10:53;;;;;;;4.20;2.27;;;9.30;99.90;;;-141.84;76.32;19350.50;5053568;28;20251;-62
2022/11/10 06:13:22;;;;;;;4.30;2.10;;;9.40;99.90;;;-141.84;75.34;19332.19;5052664;28;20742;-62
2022/11/10 06:15:51;;;;;;;6.00;2.30;;;9.50;99.90;;;-141.84;75.43;19342.34;5053184;28;20233;-61
2022/11/10 06:18:19;;;;;;;6.53;2.10;;;9.50;99.90;;;-141.84;75.27;19328.13;5052959;28;20225;-62
2022/11/10 06:20:48;;;;;;;5.43;2.33;;;9.50;99.90;;;-141.84;73.79;19370.81;5052891;28;20712;-63
2022/11/10 06:23:16;;;;;;;4.67;2.40;;;9.60;99.90;;;-141.84;73.94;19358.63;5052566;28;20561;-61
2022/11/10 06:25:44;;;;;;;5.03;1.80;;;9.70;99.90;;;-141.84;73.64;19376.91;5053399;28;20206;-62
2022/11/10 06:28:13;;;;;;;4.73;2.03;;;9.70;99.90;;;-141.84;74.31;19383.00;5052663;28;20754;-62
2022/11/10 06:30:43;;;;;;;5.13;2.13;;;9.70;99.90;;;-141.84;73.63;19368.78;5053070;28;20235;-62
2022/11/10 06:33:11;;;;;;;4.33;2.17;;;9.60;99.90;;;-141.84;73.94;19356.59;5052759;28;20236;-61
2022/11/10 06:35:39;;;;;;;4.50;2.33;;;9.60;99.90;;;-141.84;74.85;19334.22;5052808;28;20221;-61
2022/11/10 06:38:11;;;;;;;6.00;2.33;;;9.50;99.90;;;-141.84;75.63;19334.22;5052365;28;20228;-60
2022/11/10 06:40:39;;;;;;;3.77;2.33;;;9.50;99.90;;;-141.84;75.90;19305.78;5052895;28;20190;-61
2022/11/10 06:43:07;;;;;;;3.03;1.80;;;9.40;99.90;;;-141.84;75.80;19336.25;5052398;28;20773;-61
2022/11/10 06:45:35;;;;;;;3.77;2.10;;;9.30;99.90;;;-141.84;75.75;19342.34;5052416;28;20245;-62
2022/11/10 06:48:08;;;;;;;2.83;1.90;;;9.30;99.90;;;-141.84;76.58;19309.84;5052830;28;20303;-61
2022/11/10 06:50:36;;;;;;;9.23;2.60;;;9.20;99.90;;;-141.84;75.85;19309.84;5052514;28;20232;-60
2022/11/10 06:53:04;;;;;;;5.07;2.50;;;9.20;99.90;;;-141.84;76.02;19275.31;5052504;28;20226;-61
2022/11/10 06:55:32;;;;;;;4.20;2.20;;;9.20;99.90;;;-141.84;76.21;19275.31;5056862;28;20196;-62
2022/11/10 06:58:01;;;;;;;7.07;2.57;;;9.10;99.90;;;-141.84;76.39;19340.31;5072028;28;20228;-61
2022/11/10 07:00:30;;;;;;;8.90;2.40;;;9.20;99.90;;;-141.84;76.09;19285.47;5072203;28;20231;-61
2022/11/10 07:03:02;;;;;;;3.30;2.30;;;9.10;99.90;;;-141.84;76.47;19283.44;5068271;28;20375;-61
2022/11/10 07:05:34;;;;;;;5.10;2.37;;;9.10;99.90;;;-141.84;76.69;19293.59;5052000;28;20905;-61
2022/11/10 07:08:04;;;;;;;6.57;2.73;;;9.10;99.90;;;-141.84;76.72;19309.84;5052121;28;20201;-61
2022/11/10 07:10:34;;;;;;;3.60;2.33;;;9.10;99.90;;;-141.84;75.45;19311.88;5052246;28;20201;-61
2022/11/10 07:13:04;;;;;;;4.33;2.30;;;9.20;99.90;;;-141.84;74.92;19322.03;5051817;28;20221;-62
2022/11/10 07:15:33;;;;;;;7.40;2.33;;;9.30;99.90;;;-141.84;75.37;19332.19;5051860;28;20275;-61
2022/11/10 07:18:02;;;;;;;10.07;2.40;;;9.30;99.90;;;-141.84;75.64;19395.19;5051679;28;20221;-61
2022/11/10 07:20:32;;;;;;;4.33;2.47;;;9.30;99.90;;;-141.84;74.81;19342.34;5051966;28;20250;-61
2022/11/10 07:23:02;;;;;;;8.10;2.60;;;9.40;99.90;;;-141.84;74.83;19328.13;5051717;28;20280;-63
2022/11/10 07:25:34;;;;;;;6.73;2.40;;;9.40;99.90;;;-141.84;74.34;19320.00;5052450;28;20220;-60
2022/11/10 07:28:05;;;;;;;4.53;2.10;;;9.50;99.90;;;-141.84;74.10;19336.25;5051668;28;20225;-62
2022/11/10 07:30:35;;;;;;;6.53;2.40;;;9.60;99.90;;;-141.84;74.25;19358.63;5051819;28;20243;-61
2022/11/10 07:33:07;;;;;;;7.37;2.30;;;9.70;99.90;;;-141.84;73.78;19387.06;5051569;28;20229;-60
2022/11/10 07:35:37;;;;;;;4.37;2.40;;;9.70;99.90;;;-141.84;73.41;19376.91;5051738;28;20225;-60
2022/11/10 07:38:09;;;;;;;6.47;2.10;;;9.80;99.90;;;-141.84;72.29;19423.66;5051657;28;20197;-61
2022/11/10 07:40:38;;;;;;;8.87;2.60;;;9.90;99.90;;;-141.84;71.55;19417.56;5052087;28;20201;-62
2022/11/10 07:43:06;;;;;;;5.30;2.60;;;10.10;99.90;;;-141.84;72.08;19411.44;5051430;28;20236;-62
2022/11/10 07:45:34;;;;;;;4.30;2.20;;;10.10;99.90;;;-141.84;71.46;19409.41;5051324;28;20248;-60
2022/11/10 07:48:06;;;;;;;7.80;2.63;;;10.20;99.90;;;-141.84;71.82;19419.59;5051465;28;20229;-62
2022/11/10 07:50:35;;;;;;;5.00;2.13;;;10.30;99.90;;;-141.84;71.13;19456.16;5051289;28;20217;-61
2022/11/10 07:53:06;;;;;;;5.03;2.30;;;10.40;99.90;;;-141.84;70.34;19484.59;5051204;28;20226;-60
2022/11/10 07:55:36;;;;;;;4.23;2.23;;;10.50;99.90;;;-141.84;69.82;19506.97;5056509;28;20553;-61
2022/11/10 07:58:06;;;;;;;4.50;2.20;;;10.50;99.90;;;-141.84;69.67;19535.41;5070854;28;20250;-61
2022/11/10 08:00:35;;;;;;;6.33;2.97;;;10.60;99.90;;;-141.84;70.17;19468.34;5055928;28;20229;-62
2022/11/10 08:03:05;;;;;;;8.80;2.73;;;10.60;99.90;;;-141.84;70.11;19504.94;5051230;28;20225;-61
2022/11/10 08:05:36;;;;;;;4.80;1.90;;;10.70;99.90;;;-141.84;70.17;19480.53;5050897;28;20221;-61
2022/11/10 08:08:05;;;;;;;8.20;2.67;;;10.90;99.90;;;-141.84;70.02;19521.19;5051391;28;20201;-62
2022/11/10 08:10:34;;;;;;;4.93;2.03;;;10.80;99.90;;;-141.84;69.09;19527.28;5050816;28;20193;-61
2022/11/10 08:13:05;;;;;;;6.97;2.53;;;10.90;99.90;;;-141.84;69.35;19517.13;5050580;28;20708;-61
2022/11/10 08:15:34;;;;;;;5.03;2.10;;;11.00;99.90;;;-141.84;68.86;19549.63;5050389;28;20224;-60
2022/11/10 08:18:05;;;;;;;4.43;2.40;;;11.10;99.90;;;-141.84;68.00;19608.56;5050820;28;20267;-61
2022/11/10 08:20:35;;;;;;;5.80;2.67;;;11.20;99.90;;;-141.84;67.92;19600.44;5050748;28;20224;-61
2022/11/10 08:23:06;;;;;;;5.47;2.20;;;11.20;99.90;;;-141.84;67.59;19594.34;5051205;28;20205;-62
2022/11/10 08:25:37;;;;;;;4.53;2.10;;;11.30;99.90;;;-141.84;67.02;19643.13;5050684;28;20189;-61
2022/11/10 08:28:07;;;;;;;7.77;2.93;;;11.50;99.90;;;-141.84;67.39;19618.75;5050292;28;20708;-62
2022/11/10 08:30:38;;;;;;;4.17;2.17;;;11.50;99.90;;;-141.84;66.47;19614.66;5050728;28;20229;-61
2022/11/10 08:33:08;;;;;;;5.83;2.17;;;11.70;99.90;;;-141.84;65.79;19651.25;5049318;28;20225;-61
2022/11/10 08:35:41;;;;;;;5.80;3.00;;;11.70;99.90;;;-141.84;65.44;19685.81;5049640;28;20221;-62
2022/11/10 08:38:11;;;;;;;6.75;2.45;;;11.80;99.90;;;-141.84;64.50;19742.72;5050368;28;20677;-62
2022/11/10 08:40:40;;;;;;;6.37;2.40;;;12.10;99.90;;;-141.84;63.40;19736.59;5051170;28;20228;-61
2022/11/10 08:43:10;;;;;;;5.70;2.30;;;12.20;99.90;;;-141.84;64.29;19712.22;5050102;28;20221;-63
2022/11/10 08:45:41;;;;;;;2.95;2.17;;;12.20;99.90;;;-141.84;65.33;19667.50;5050228;28;20237;-62
2022/11/10 08:48:12;;;;;;;6.37;2.43;;;12.00;99.90;;;-141.84;66.07;19663.44;5050544;28;20229;-62
2022/11/10 08:50:43;;;;;;;7.23;2.60;;;11.90;99.90;;;-141.84;66.47;19647.19;5050374;28;20615;-60
2022/11/10 08:53:14;;;;;;;5.47;2.90;;;11.70;99.90;;;-141.84;67.13;19639.06;5050494;28;20205;-61
2022/11/10 08:55:44;;;;;;;5.47;2.50;;;11.60;99.90;;;-141.84;67.39;19618.75;5050540;28;20201;-61
2022/11/10 08:58:15;;;;;;;8.03;2.27;;;11.50;99.90;;;-141.84;67.51;19630.94;5050105;28;20557;-60
2022/11/10 09:00:43;;;;;;;6.07;2.30;;;11.40;99.90;;;-141.84;67.33;19641.09;5050161;28;20235;-62
2022/11/10 09:03:15;;;;;;;7.03;2.50;;;11.50;99.90;;;-141.84;66.17;19647.19;5050503;28;20232;-61
2022/11/10 09:05:46;;;;;;;6.13;2.53;;;11.70;99.90;;;-141.84;65.70;19693.94;5050382;28;20217;-61
2022/11/10 09:08:16;;;;;;;8.07;2.47;;;11.80;99.90;;;-141.84;65.01;19769.13;5050333;28;20202;-61
2022/11/10 09:10:48;;;;;;;4.07;2.20;;;12.10;99.90;;;-141.84;63.74;19769.13;5050336;28;20193;-62
2022/11/10 09:13:20;;;;;;;4.87;2.60;;;12.30;99.90;;;-141.84;64.36;19758.97;5049957;28;20593;-63
2022/11/10 09:15:56;;;;;;;6.90;2.73;;;12.30;99.90;;;-141.84;64.94;19689.88;5050158;28;20231;-62
2022/11/10 09:18:24;;;;;;;7.10;2.17;;;12.20;99.90;;;-141.84;65.18;19710.19;5050355;28;20248;-62
2022/11/10 09:20:54;;;;;;;4.43;2.35;;;12.10;99.90;;;-141.84;65.40;19695.97;5050197;28;20225;-62
2022/11/10 09:23:23;;;;;;;4.67;2.60;;;12.10;99.90;;;-141.84;65.17;19695.97;5050291;28;20233;-62
2022/11/10 09:25:56;;;;;;;4.70;2.40;;;12.10;99.90;;;-141.84;64.25;19746.78;5050660;28;20198;-63
2022/11/10 09:28:25;;;;;;;3.23;2.23;;;12.30;99.90;;;-141.84;63.99;19754.91;5051444;28;20225;-62
2022/11/10 09:30:53;;;;;;;6.43;2.43;;;12.30;99.90;;;-141.84;63.96;19793.50;5054154;28;20221;-61
2022/11/10 09:33:21;;;;;;;4.50;2.23;;;12.40;99.90;;;-141.84;63.59;19793.50;5053807;28;20225;-62
2022/11/10 09:35:50;;;;;;;6.83;2.53;;;12.50;99.90;;;-141.84;63.74;19777.25;5053786;28;20232;-61
2022/11/10 09:38:19;;;;;;;5.50;2.33;;;12.50;99.90;;;-141.84;63.74;19793.50;5053695;28;20210;-62
2022/11/10 09:40:59;;;;;;;7.67;2.27;;;12.60;99.90;;;-141.84;63.50;19783.34;5054375;28;20276;-61
2022/11/10 09:43:37;;;;;;;4.27;2.40;;;12.60;99.90;;;-141.84;63.14;19848.38;5053530;28;20233;-61
2022/11/10 09:46:16;;;;;;;4.33;2.30;;;12.70;99.90;;;-141.84;62.38;19866.69;5053642;28;20241;-62
2022/11/10 09:48:51;;;;;;;6.40;2.23;;;12.90;99.90;;;-141.84;61.72;19887.00;5053793;28;20720;-60
2022/11/10 09:51:24;;;;;;;7.32;2.20;;;13.10;99.90;;;-141.84;61.74;19950.00;5053274;28;20711;-61
2022/11/10 09:53:58;;;;;;;6.05;2.45;;;13.30;99.90;;;-141.84;60.41;19984.56;5053395;28;20248;-61
2022/11/10 09:56:32;;;;;;;6.80;2.63;;;13.60;99.90;;;-141.84;60.09;19986.59;5065050;28;20251;-61
2022/11/10 09:59:06;;;;;;;6.30;2.80;;;13.70;99.90;;;-141.84;60.40;19976.44;5073550;28;20180;-60
2022/11/10 10:01:47;;;;;;;5.70;2.47;;;13.70;99.90;;;-141.84;61.21;19933.75;5073962;28;20193;-60
2022/11/10 10:04:42;;;;;;;5.05;2.60;;;13.50;99.90;;;-141.84;62.73;19880.91;5073425;28;20220;-60
2022/11/10 10:07:29;;;;;;;6.65;2.28;;;13.20;99.90;;;-141.84;62.33;19889.03;5073057;28;20258;-61
2022/11/10 10:10:11;;;;;;;7.67;2.67;;;13.10;99.90;;;-141.84;63.30;19858.56;5053085;28;20221;-61
2022/11/10 10:13:07;;;;;;;6.00;2.63;;;13.00;99.90;;;-141.84;62.54;19903.25;5033011;28;20226;-61
2022/11/10 10:15:49;;;;;;;7.40;2.60;;;13.10;99.90;;;-141.84;62.16;19911.41;5033103;28;20250;-61
2022/11/10 10:18:31;;;;;;;5.60;3.00;;;13.10;99.90;;;-141.84;62.35;19895.13;5033204;28;20236;-61
2022/11/10 10:21:21;;;;;;;5.93;2.80;;;13.10;99.90;;;-141.84;62.33;19868.72;5033083;28;20234;-61
2022/11/10 10:23:53;;;;;;;7.20;2.35;;;13.20;99.90;;;-141.84;62.28;19895.13;5033015;28;20591;-61
2022/11/10 10:26:50;;;;;;;6.18;2.90;;;13.20;99.90;;;-141.84;61.63;19901.22;5032785;28;20272;-60
2022/11/10 10:29:23;;;;;;;4.13;2.22;;;13.30;99.90;;;-141.84;61.74;19897.16;5032833;28;20642;-61
2022/11/10 10:31:53;;;;;;;4.88;3.00;;;13.40;99.90;;;-141.84;60.88;19925.63;5033553;28;20616;-61
2022/11/10 10:34:27;;;;;;;6.00;2.35;;;13.50;99.90;;;-141.84;60.00;20025.22;5032622;28;20245;-61